Login to view Products
 
Saturday, May 28, 2022 (09:59 UTC)
Abu Dhabi International Airport
Last Updated: 28-May-2022 (09:58Z)
Wind Dir/Speed: WNW at 10 kt
Temperature: 35.7°C
Rel. Humidity: 30 %
Pressure: 1002.5 hPa
Visibility: 10000 m
ACTUALS:
  • METAR OMAA 281000Z 32010KT 290V350 CAVOK 36/16 Q1002 NOSIG
  • TAF OMAA 280500Z 2806/2912 30015KT 8000 NSC BECMG 2820/2822 22006KT BECMG 2902/2904 30012KT=
09-- D:\Input Parser\Destinations\Final\05\OMAA_TAF.txt-- 28/05/2022-- 28/05/2022-- 3